createdAt,value
2017-01-11T00:00:47.030Z,11.49
2017-01-11T00:01:46.965Z,11.68
2017-01-11T00:02:46.905Z,11.68
2017-01-11T00:03:46.843Z,11.78
2017-01-11T00:04:46.984Z,11.78
2017-01-11T00:05:46.719Z,11.68
2017-01-11T00:06:46.658Z,11.68
2017-01-11T00:07:46.596Z,11.68
2017-01-11T00:08:46.534Z,11.58
2017-01-11T00:09:46.476Z,11.49
2017-01-11T00:10:46.411Z,11.49
2017-01-11T00:11:46.352Z,11.58
2017-01-11T00:12:46.286Z,11.58
2017-01-11T00:13:46.224Z,11.58
2017-01-11T00:14:46.162Z,11.58
2017-01-11T00:15:46.110Z,11.58
2017-01-11T00:16:46.041Z,11.49
2017-01-11T00:17:45.990Z,11.58
2017-01-11T00:18:45.912Z,11.58
2017-01-11T00:19:45.851Z,11.29
2017-01-11T00:20:45.791Z,11.49
2017-01-11T00:21:45.727Z,11.58
2017-01-11T00:22:45.666Z,11.58
2017-01-11T00:23:45.609Z,11.58
2017-01-11T00:24:45.540Z,11.58
2017-01-11T00:25:45.478Z,11.49
2017-01-11T00:26:45.417Z,11.58
2017-01-11T00:27:45.356Z,11.49
2017-01-11T00:28:45.294Z,11.58
2017-01-11T00:29:45.230Z,11.58
2017-01-11T00:30:45.167Z,11.39
2017-01-11T00:31:45.130Z,11.58
2017-01-11T00:32:45.044Z,11.58
2017-01-11T00:33:44.984Z,11.58
2017-01-11T00:34:44.921Z,11.58
2017-01-11T00:36:44.795Z,11.49
2017-01-11T00:37:44.734Z,11.58
2017-01-11T00:38:44.672Z,11.58
2017-01-11T00:39:44.614Z,11.58
2017-01-11T00:40:44.545Z,11.68
2017-01-11T00:41:44.507Z,11.78
2017-01-11T00:42:44.423Z,11.58
2017-01-11T00:43:44.362Z,11.68
2017-01-11T00:44:44.300Z,11.68
2017-01-11T00:45:44.236Z,11.58
2017-01-11T00:46:44.176Z,11.68
2017-01-11T00:47:44.112Z,11.39
2017-01-11T00:48:44.051Z,11.78
2017-01-11T00:49:43.989Z,11.58
2017-01-11T00:50:43.925Z,11.68
2017-01-11T00:51:43.864Z,11.58
2017-01-11T00:52:43.803Z,11.58
2017-01-11T00:53:43.741Z,11.58
2017-01-11T00:54:43.677Z,11.78
2017-01-11T00:55:43.616Z,11.68
2017-01-11T00:56:43.557Z,11.58
2017-01-11T00:57:43.490Z,11.78
2017-01-11T00:58:43.431Z,11.68
2017-01-11T00:59:43.365Z,11.58
2017-01-11T01:01:12.485Z,11.49
2017-01-11T01:02:12.409Z,11.78
2017-01-11T01:03:12.352Z,11.97
2017-01-11T01:04:12.285Z,11.49
2017-01-11T01:05:12.224Z,11.78
2017-01-11T01:06:12.165Z,11.97
2017-01-11T01:07:12.101Z,11.78
2017-01-11T01:08:12.041Z,11.58
2017-01-11T01:09:11.975Z,11.97
2017-01-11T01:10:11.917Z,11.58
2017-01-11T01:11:11.851Z,11.39
2017-01-11T01:12:11.787Z,11.78
2017-01-11T01:13:11.726Z,11.87
2017-01-11T01:14:11.670Z,11.87
2017-01-11T01:15:11.631Z,11.87
2017-01-11T01:16:11.540Z,11.49
2017-01-11T01:17:11.483Z,11.87
2017-01-11T01:18:11.417Z,11.78
2017-01-11T01:19:11.353Z,11.58
2017-01-11T01:20:11.292Z,11.78
2017-01-11T01:21:11.231Z,11.87
2017-01-11T01:22:11.166Z,11.87
2017-01-11T01:23:11.105Z,11.87
2017-01-11T01:24:11.045Z,11.87
2017-01-11T01:25:10.982Z,11.78
2017-01-11T01:26:10.918Z,11.97
2017-01-11T01:27:10.857Z,11.78
2017-01-11T01:28:10.794Z,11.87
2017-01-11T01:29:10.732Z,11.87
2017-01-11T01:30:10.672Z,11.97
2017-01-11T01:31:10.607Z,11.97
2017-01-11T01:32:10.545Z,11.97
2017-01-11T01:33:10.485Z,11.87
2017-01-11T01:34:10.420Z,11.97
2017-01-11T01:35:10.358Z,11.97
2017-01-11T01:36:10.302Z,11.97
2017-01-11T01:37:10.234Z,12.07
2017-01-11T01:38:10.171Z,11.68
2017-01-11T01:39:10.110Z,11.78
2017-01-11T01:40:10.068Z,12.16
2017-01-11T01:41:09.988Z,11.97
2017-01-11T01:42:09.923Z,11.68
2017-01-11T01:43:09.860Z,11.68
2017-01-11T01:44:09.799Z,11.68
2017-01-11T01:45:09.737Z,11.87
2017-01-11T01:46:09.677Z,11.78
2017-01-11T01:47:09.610Z,11.68
2017-01-11T01:48:09.554Z,12.07
2017-01-11T01:49:09.487Z,12.16
2017-01-11T01:50:09.425Z,12.07
2017-01-11T01:51:09.363Z,12.07
2017-01-11T01:52:09.300Z,12.16
2017-01-11T01:53:09.241Z,11.87
2017-01-11T01:54:09.178Z,11.97
2017-01-11T01:55:09.119Z,12.07
2017-01-11T01:56:09.056Z,11.97
2017-01-11T01:57:08.990Z,12.16
2017-01-11T01:58:08.928Z,11.97
2017-01-11T01:59:08.866Z,12.16
2017-01-11T02:01:08.740Z,12.16
2017-01-11T02:02:08.679Z,11.97
2017-01-11T02:03:08.617Z,12.16
2017-01-11T02:04:08.554Z,12.07
2017-01-11T02:05:08.492Z,12.26
2017-01-11T02:06:08.430Z,12.07
2017-01-11T02:07:08.366Z,12.26
2017-01-11T02:08:08.306Z,11.97
2017-01-11T02:09:08.240Z,11.97
2017-01-11T02:10:08.181Z,11.97
2017-01-11T02:11:08.116Z,11.87
2017-01-11T02:12:08.056Z,11.97
2017-01-11T02:13:07.993Z,11.87
2017-01-11T02:14:07.929Z,12.07
2017-01-11T02:15:07.867Z,11.97
2017-01-11T02:16:07.816Z,11.87
2017-01-11T02:17:07.742Z,11.87
2017-01-11T02:18:07.679Z,11.78
2017-01-11T02:19:07.621Z,11.87
2017-01-11T02:20:07.556Z,11.87
2017-01-11T02:21:07.494Z,11.97
2017-01-11T02:22:07.430Z,11.87
2017-01-11T02:23:07.371Z,11.97
2017-01-11T02:24:07.308Z,11.97
2017-01-11T02:25:07.247Z,11.97
2017-01-11T02:26:07.184Z,11.78
2017-01-11T02:27:07.122Z,11.78
2017-01-11T02:28:07.058Z,12.16
2017-01-11T02:29:06.995Z,11.87
2017-01-11T02:30:06.933Z,11.87
2017-01-11T02:31:06.872Z,11.87
2017-01-11T02:32:06.808Z,11.78
2017-01-11T02:33:06.746Z,12.26
2017-01-11T02:34:06.685Z,11.87
2017-01-11T02:35:06.623Z,12.16
2017-01-11T02:36:06.563Z,12.36
2017-01-11T02:37:06.513Z,11.78
2017-01-11T02:38:06.435Z,12.26
2017-01-11T02:39:06.371Z,12.36
2017-01-11T02:40:06.310Z,12.16
2017-01-11T02:41:06.251Z,12.26
2017-01-11T02:42:06.188Z,11.68
2017-01-11T02:43:06.128Z,11.87
2017-01-11T02:44:06.063Z,11.87
2017-01-11T02:45:06.001Z,11.97
2017-01-11T02:46:05.936Z,11.87
2017-01-11T02:47:05.878Z,11.78
2017-01-11T02:48:05.814Z,11.87
2017-01-11T02:49:05.752Z,12.07
2017-01-11T02:50:05.689Z,11.97
2017-01-11T02:51:05.641Z,11.87
2017-01-11T02:52:05.566Z,11.87
2017-01-11T02:53:05.503Z,11.97
2017-01-11T02:54:05.468Z,11.97
2017-01-11T02:55:05.383Z,12.07
2017-01-11T02:56:05.318Z,11.87
2017-01-11T02:57:05.255Z,11.87
2017-01-11T02:58:05.193Z,12.07
2017-01-11T02:59:05.132Z,11.87
2017-01-11T03:00:05.069Z,11.97
2017-01-11T03:01:05.009Z,11.97
2017-01-11T03:02:04.952Z,11.87
2017-01-11T03:03:04.883Z,11.87
2017-01-11T03:04:04.826Z,11.87
2017-01-11T03:05:04.762Z,11.87
2017-01-11T03:06:04.699Z,11.87
2017-01-11T03:07:04.640Z,11.87
2017-01-11T03:08:04.575Z,11.78
2017-01-11T03:09:04.514Z,11.97
2017-01-11T03:10:04.460Z,11.97
2017-01-11T03:11:04.391Z,11.78
2017-01-11T03:12:04.330Z,11.97
2017-01-11T03:13:04.267Z,11.87
2017-01-11T03:14:04.208Z,11.78
2017-01-11T03:15:04.146Z,12.16
2017-01-11T03:16:04.473Z,11.87
2017-01-11T03:17:04.022Z,11.68
2017-01-11T03:18:03.959Z,11.78
2017-01-11T03:19:03.897Z,12.16
2017-01-11T03:20:03.835Z,12.36
2017-01-11T03:21:03.775Z,12.36
2017-01-11T03:22:03.710Z,12.45
2017-01-11T03:23:03.656Z,12.07
2017-01-11T03:24:03.591Z,12.16
2017-01-11T03:25:03.526Z,12.26
2017-01-11T03:26:03.466Z,11.97
2017-01-11T03:27:03.402Z,12.16
2017-01-11T03:28:03.342Z,12.26
2017-01-11T03:29:03.281Z,12.07
2017-01-11T03:30:03.217Z,12.26
2017-01-11T03:31:03.156Z,12.07
2017-01-11T03:32:03.093Z,12.16
2017-01-11T03:33:03.032Z,12.26
2017-01-11T03:34:02.973Z,11.87
2017-01-11T03:35:02.911Z,12.26
2017-01-11T03:36:02.846Z,12.07
2017-01-11T03:37:02.784Z,12.07
2017-01-11T03:38:02.724Z,11.87
2017-01-11T03:39:02.659Z,11.97
2017-01-11T03:40:02.602Z,11.87
2017-01-11T03:41:02.536Z,12.16
2017-01-11T03:42:02.477Z,11.87
2017-01-11T03:43:02.414Z,11.87
2017-01-11T03:44:02.378Z,11.97
2017-01-11T03:45:02.289Z,11.97
2017-01-11T03:46:02.228Z,11.97
2017-01-11T03:47:02.168Z,11.87
2017-01-11T03:48:02.112Z,12.26
2017-01-11T03:49:02.045Z,12.07
2017-01-11T03:50:01.984Z,12.26
2017-01-11T03:51:01.921Z,11.97
2017-01-11T03:52:01.857Z,11.87
2017-01-11T03:53:01.806Z,12.16
2017-01-11T03:54:01.736Z,11.97
2017-01-11T03:55:01.672Z,12.16
2017-01-11T03:56:01.613Z,12.26
2017-01-11T03:57:01.550Z,12.26
2017-01-11T03:58:01.489Z,11.97
2017-01-11T03:59:01.425Z,12.16
2017-01-11T04:00:01.363Z,12.16
2017-01-11T04:01:01.302Z,12.07
2017-01-11T04:02:01.242Z,12.16
2017-01-11T04:03:01.189Z,12.07
2017-01-11T04:04:01.118Z,12.16
2017-01-11T04:05:01.056Z,12.16
2017-01-11T04:06:00.996Z,12.16
2017-01-11T04:07:00.934Z,12.07
2017-01-11T04:08:01.073Z,11.97
2017-01-11T04:09:00.810Z,12.26
2017-01-11T04:10:00.750Z,12.26
2017-01-11T04:11:00.685Z,12.07
2017-01-11T04:12:00.624Z,12.16
2017-01-11T04:13:00.563Z,12.26
2017-01-11T04:14:00.500Z,11.97
2017-01-11T04:15:00.439Z,11.97
2017-01-11T04:16:00.375Z,12.26
2017-01-11T04:17:00.323Z,12.16
2017-01-11T04:18:00.251Z,12.26
2017-01-11T04:19:00.192Z,12.16
2017-01-11T04:20:00.129Z,11.97
2017-01-11T04:21:00.066Z,12.07
2017-01-11T04:22:00.005Z,12.07
2017-01-11T04:22:59.943Z,12.26
2017-01-11T04:23:59.884Z,12.26
2017-01-11T04:24:59.819Z,11.97
2017-01-11T04:25:59.759Z,11.97
2017-01-11T04:26:59.698Z,11.97
2017-01-11T04:27:59.636Z,12.07
2017-01-11T04:28:59.571Z,12.07
2017-01-11T04:29:59.512Z,12.26
2017-01-11T04:30:59.447Z,12.26
2017-01-11T04:31:59.385Z,12.16
2017-01-11T04:32:59.714Z,12.07
2017-01-11T04:33:59.261Z,12.07
2017-01-11T04:34:59.203Z,12.26
2017-01-11T04:35:59.139Z,12.07
2017-01-11T04:36:59.076Z,12.16
2017-01-11T04:37:59.016Z,12.26
2017-01-11T04:38:58.952Z,12.26
2017-01-11T04:39:58.891Z,12.26
2017-01-11T04:40:58.831Z,12.26
2017-01-11T04:41:58.781Z,12.26
2017-01-11T04:42:58.705Z,12.07
2017-01-11T04:43:58.642Z,11.97
2017-01-11T04:44:58.582Z,12.26
2017-01-11T04:45:58.519Z,12.26
2017-01-11T04:46:58.455Z,11.97
2017-01-11T04:47:58.400Z,12.26
2017-01-11T04:48:58.338Z,12.26
2017-01-11T04:49:58.270Z,12.16
2017-01-11T04:50:58.212Z,11.97
2017-01-11T04:51:58.146Z,12.07
2017-01-11T04:52:58.087Z,11.97
2017-01-11T04:53:58.021Z,12.07
2017-01-11T04:54:57.959Z,12.26
2017-01-11T04:55:57.897Z,12.26
2017-01-11T04:56:57.836Z,12.26
2017-01-11T04:57:57.773Z,12.26
2017-01-11T04:58:57.714Z,12.26
2017-01-11T04:59:57.649Z,12.16
2017-01-11T05:00:57.588Z,11.97
2017-01-11T05:01:57.528Z,11.97
2017-01-11T05:02:57.463Z,11.97
2017-01-11T05:03:57.401Z,11.97
2017-01-11T05:04:57.342Z,12.26
2017-01-11T05:05:57.278Z,12.26
2017-01-11T05:06:57.219Z,12.26
2017-01-11T05:07:57.154Z,12.26
2017-01-11T05:08:57.102Z,12.26
2017-01-11T05:09:57.040Z,12.07
2017-01-11T05:10:56.968Z,12.26
2017-01-11T05:11:56.905Z,12.16
2017-01-11T05:12:56.844Z,12.16
2017-01-11T05:13:56.781Z,12.16
2017-01-11T05:14:56.717Z,12.16
2017-01-11T05:15:56.654Z,12.36
2017-01-11T05:16:56.593Z,12.07
2017-01-11T05:17:56.530Z,12.16
2017-01-11T05:18:56.469Z,12.16
2017-01-11T05:19:56.409Z,12.26
2017-01-11T05:20:56.348Z,12.26
2017-01-11T05:21:56.294Z,12.16
2017-01-11T05:22:56.426Z,11.97
2017-01-11T05:23:56.158Z,12.26
2017-01-11T05:24:56.098Z,11.97
2017-01-11T05:25:56.038Z,11.97
2017-01-11T05:26:55.971Z,12.16
2017-01-11T05:27:55.910Z,12.36
2017-01-11T05:28:55.849Z,12.26
2017-01-11T05:29:56.179Z,11.87
2017-01-11T05:30:55.724Z,11.87
2017-01-11T05:31:55.663Z,11.58
2017-01-11T05:32:55.602Z,11.97
2017-01-11T05:33:55.539Z,11.78
2017-01-11T05:34:55.474Z,11.1
2017-01-11T05:35:55.802Z,11.2
2017-01-11T05:36:55.352Z,10.81
2017-01-11T05:37:55.290Z,11
2017-01-11T05:38:55.223Z,10.91
2017-01-11T05:39:55.169Z,10.62
2017-01-11T05:40:55.103Z,10.52
2017-01-11T05:41:55.039Z,10.42
2017-01-11T05:42:54.982Z,10.33
2017-01-11T05:43:54.916Z,10.62
2017-01-11T05:44:54.854Z,10.33
2017-01-11T05:45:54.791Z,10.33
2017-01-11T05:46:54.731Z,10.52
2017-01-11T05:47:54.668Z,10.33
2017-01-11T05:48:54.614Z,10.23
2017-01-11T05:49:54.542Z,9.66
2017-01-11T05:50:54.479Z,9.84
2017-01-11T05:51:54.419Z,10.04
2017-01-11T05:52:54.355Z,9.84
2017-01-11T05:53:54.293Z,9.56
2017-01-11T05:54:54.231Z,9.56
2017-01-11T05:55:54.171Z,9.56
2017-01-11T05:56:54.108Z,9.66
2017-01-11T05:57:54.047Z,9.36
2017-01-11T05:58:53.983Z,9.46
2017-01-11T05:59:53.921Z,9.36
2017-01-11T06:00:53.859Z,9.36
2017-01-11T06:01:53.798Z,9.46
2017-01-11T06:02:53.736Z,9.36
2017-01-11T06:03:53.873Z,9.36
2017-01-11T06:04:53.620Z,8.98
2017-01-11T06:05:53.554Z,9.46
2017-01-11T06:06:53.486Z,8.98
2017-01-11T06:07:53.431Z,9.36
2017-01-11T06:08:53.366Z,9.46
2017-01-11T06:09:53.303Z,9.17
2017-01-11T06:10:53.239Z,9.17
2017-01-11T06:11:53.177Z,8.78
2017-01-11T06:12:53.115Z,8.88
2017-01-11T06:13:53.056Z,9.08
2017-01-11T06:14:52.993Z,8.78
2017-01-11T06:15:52.933Z,9.17
2017-01-11T06:16:52.870Z,9.17
2017-01-11T06:17:52.808Z,9.27
2017-01-11T06:18:52.750Z,9.27
2017-01-11T06:19:52.685Z,9.46
2017-01-11T06:20:52.622Z,9.27
2017-01-11T06:21:52.568Z,8.5
2017-01-11T06:22:52.497Z,8.98
2017-01-11T06:23:52.436Z,9.27
2017-01-11T06:24:52.374Z,9.08
2017-01-11T06:25:52.311Z,8.98
2017-01-11T06:26:52.249Z,8.88
2017-01-11T06:27:52.194Z,9.17
2017-01-11T06:28:52.125Z,8.89
2017-01-11T06:29:52.063Z,8.88
2017-01-11T06:30:52.031Z,8.59
2017-01-11T06:31:51.942Z,8.59
2017-01-11T06:32:51.877Z,8.78
2017-01-11T06:33:51.816Z,8.59
2017-01-11T06:34:51.762Z,8.69
2017-01-11T06:35:51.698Z,8.69
2017-01-11T06:36:51.630Z,8.59
2017-01-11T06:37:51.569Z,8.59
2017-01-11T06:38:51.505Z,8.78
2017-01-11T06:39:51.445Z,8.59
2017-01-11T06:40:51.386Z,8.5
2017-01-11T06:41:51.324Z,8.4
2017-01-11T06:42:51.262Z,8.78
2017-01-11T06:43:51.197Z,9.17
2017-01-11T06:44:51.134Z,9.17
2017-01-11T06:45:51.074Z,9.27
2017-01-11T06:46:51.014Z,9.27
2017-01-11T06:47:50.950Z,9.27
2017-01-11T06:48:50.888Z,9.17
2017-01-11T06:49:50.826Z,9.08
2017-01-11T06:50:50.764Z,8.98
2017-01-11T06:51:50.704Z,9.08
2017-01-11T06:52:50.639Z,9.08
2017-01-11T06:53:50.578Z,9.17
2017-01-11T06:54:50.516Z,9.27
2017-01-11T06:55:50.453Z,9.08
2017-01-11T06:56:50.392Z,9.27
2017-01-11T06:57:50.330Z,8.98
2017-01-11T06:58:50.267Z,9.08
2017-01-11T06:59:50.608Z,9.08
2017-01-11T07:00:50.177Z,9.27
2017-01-11T07:01:50.084Z,9.36
2017-01-11T07:02:50.021Z,9.37
2017-01-11T07:03:49.959Z,9.27
2017-01-11T07:04:49.902Z,9.27
2017-01-11T07:05:49.834Z,9.08
2017-01-11T07:06:49.775Z,8.98
2017-01-11T07:07:49.712Z,8.69
2017-01-11T07:08:49.652Z,8.59
2017-01-11T07:09:49.591Z,8.59
2017-01-11T07:10:49.527Z,8.5
2017-01-11T07:11:49.464Z,8.78
2017-01-11T07:12:49.402Z,8.5
2017-01-11T07:13:49.339Z,8.11
2017-01-11T07:14:49.307Z,8.5
2017-01-11T07:15:49.215Z,8.59
2017-01-11T07:16:49.154Z,8.31
2017-01-11T07:17:49.093Z,8.2
2017-01-11T07:18:49.028Z,7.92
2017-01-11T07:19:48.968Z,8.21
2017-01-11T07:20:48.906Z,8.2
2017-01-11T07:21:48.847Z,8.2
2017-01-11T07:22:48.784Z,8.2
2017-01-11T07:23:48.720Z,8.3
2017-01-11T07:24:48.658Z,7.92
2017-01-11T07:25:48.598Z,7.82
2017-01-11T07:26:48.536Z,8.01
2017-01-11T07:27:48.473Z,8.3
2017-01-11T07:28:48.411Z,7.92
2017-01-11T07:29:48.347Z,8.01
2017-01-11T07:30:48.288Z,7.92
2017-01-11T07:31:48.223Z,7.82
2017-01-11T07:32:48.163Z,7.82
2017-01-11T07:33:48.101Z,8.2
2017-01-11T07:34:48.040Z,8.3
2017-01-11T07:35:47.978Z,8.4
2017-01-11T07:36:47.915Z,8.3
2017-01-11T07:37:47.852Z,8.3
2017-01-11T07:38:47.791Z,8.3
2017-01-11T07:39:47.727Z,8.11
2017-01-11T07:40:47.666Z,8.3
2017-01-11T07:41:47.603Z,8.11
2017-01-11T07:42:47.570Z,8.01
2017-01-11T07:43:47.479Z,8.01
2017-01-11T07:44:47.420Z,8.3
2017-01-11T07:45:47.356Z,8.2
2017-01-11T07:46:47.302Z,8.2
2017-01-11T07:47:47.232Z,8.2
2017-01-11T07:48:47.170Z,8.01
2017-01-11T07:49:47.108Z,8.01
2017-01-11T07:50:47.046Z,8.3
2017-01-11T07:51:46.987Z,8.4
2017-01-11T07:52:46.927Z,8.5
2017-01-11T07:53:46.858Z,8.4
2017-01-11T07:54:46.797Z,8.5
2017-01-11T07:55:46.735Z,8.4
2017-01-11T07:56:46.672Z,8.59
2017-01-11T07:57:46.610Z,8.59
2017-01-11T07:58:46.548Z,8.59
2017-01-11T07:59:46.491Z,8.59
2017-01-11T08:00:46.424Z,8.4
2017-01-11T08:01:46.365Z,8.4
2017-01-11T08:02:46.303Z,8.3
2017-01-11T08:03:46.240Z,8.4
2017-01-11T08:04:46.176Z,8.5
2017-01-11T08:05:46.116Z,8.4
2017-01-11T08:06:46.445Z,8.2
2017-01-11T08:07:45.991Z,8.3
2017-01-11T08:08:45.929Z,8.4
2017-01-11T08:09:45.866Z,8.69
2017-01-11T08:10:45.808Z,8.4
2017-01-11T08:11:45.747Z,8.59
2017-01-11T08:12:45.685Z,8.59
2017-01-11T08:13:45.620Z,8.59
2017-01-11T08:14:45.554Z,8.59
2017-01-11T08:15:45.496Z,8.59
2017-01-11T08:16:45.434Z,8.69
2017-01-11T08:17:45.370Z,8.88
2017-01-11T08:18:45.306Z,8.59
2017-01-11T08:19:45.246Z,8.69
2017-01-11T08:20:45.184Z,8.59
2017-01-11T08:21:45.124Z,8.69
2017-01-11T08:22:45.060Z,8.59
2017-01-11T08:23:45.000Z,8.69
2017-01-11T08:24:44.937Z,8.69
2017-01-11T08:25:44.884Z,8.69
2017-01-11T08:26:44.822Z,8.59
2017-01-11T08:27:44.760Z,8.5
2017-01-11T08:28:44.695Z,8.59
2017-01-11T08:29:44.632Z,8.4
2017-01-11T08:30:59.652Z,8.3
2017-01-11T08:31:44.521Z,8.4
2017-01-11T08:32:44.461Z,8.3
2017-01-11T08:33:44.378Z,8.3
2017-01-11T08:34:44.324Z,8.4
2017-01-11T08:35:44.259Z,8.5
2017-01-11T08:36:44.202Z,8.5
2017-01-11T08:37:44.152Z,9.36
2017-01-11T08:38:44.080Z,9.36
2017-01-11T08:39:44.007Z,8.98
2017-01-11T08:40:43.942Z,9.08
2017-01-11T08:41:43.881Z,9.08
2017-01-11T08:42:43.820Z,8.98
2017-01-11T08:43:43.758Z,9.17
2017-01-11T08:44:43.695Z,9.56
2017-01-11T08:45:43.636Z,9.66
2017-01-11T08:46:43.570Z,9.66
2017-01-11T08:47:43.507Z,9.46
2017-01-11T08:48:43.446Z,10.04
2017-01-11T08:49:43.385Z,9.56
2017-01-11T08:50:43.322Z,10.04
2017-01-11T08:51:43.264Z,9.84
2017-01-11T08:52:43.199Z,9.84
2017-01-11T08:53:43.136Z,10.52
2017-01-11T08:54:43.078Z,10.33
2017-01-11T08:55:43.013Z,10.62
2017-01-11T08:56:42.971Z,10.62
2017-01-11T08:57:42.894Z,10.72
2017-01-11T08:58:42.825Z,10.91
2017-01-11T08:59:42.773Z,11
2017-01-11T09:00:42.704Z,10.91
2017-01-11T09:01:42.644Z,10.91
2017-01-11T09:02:42.581Z,10.81
2017-01-11T09:03:42.515Z,11.2
2017-01-11T09:04:42.457Z,11.29
2017-01-11T09:05:42.943Z,11.29
2017-01-11T09:06:42.328Z,11.58
2017-01-11T09:07:42.274Z,11.97
2017-01-11T09:08:42.212Z,11.78
2017-01-11T09:09:42.147Z,12.16
2017-01-11T09:10:42.083Z,11.87
2017-01-11T09:11:42.022Z,12.45
2017-01-11T09:12:41.963Z,12.36
2017-01-11T09:13:41.897Z,12.26
2017-01-11T09:14:41.859Z,12.16
2017-01-11T09:15:41.824Z,11.87
2017-01-11T09:16:41.711Z,11.97
2017-01-11T09:17:41.650Z,12.55
2017-01-11T09:18:41.591Z,12.55
2017-01-11T09:19:41.554Z,12.74
2017-01-11T09:20:41.468Z,12.65
2017-01-11T09:21:41.793Z,12.65
2017-01-11T09:22:41.340Z,12.93
2017-01-11T09:23:41.298Z,12.84
2017-01-11T09:24:41.217Z,12.55
2017-01-11T09:25:41.155Z,12.84
2017-01-11T09:26:41.093Z,13.23
2017-01-11T09:27:41.030Z,12.84
2017-01-11T09:28:40.968Z,12.74
2017-01-11T09:29:40.910Z,12.84
2017-01-11T09:30:40.843Z,13.23
2017-01-11T09:31:41.173Z,13.13
2017-01-11T09:32:40.721Z,13.03
2017-01-11T09:33:40.660Z,12.16
2017-01-11T09:34:40.598Z,11.39
2017-01-11T09:35:40.534Z,11.29
2017-01-11T09:36:40.476Z,11
2017-01-11T09:37:40.421Z,10.81
2017-01-11T09:38:40.351Z,11.1
2017-01-11T09:39:40.290Z,11.1
2017-01-11T09:40:40.229Z,10.91
2017-01-11T09:41:40.187Z,11
2017-01-11T09:42:40.099Z,11.1
2017-01-11T09:43:40.038Z,11
2017-01-11T09:44:39.977Z,11.1
2017-01-11T09:45:39.914Z,11
2017-01-11T09:46:39.850Z,10.91
2017-01-11T09:47:39.788Z,11.1
2017-01-11T09:48:39.733Z,11.1
2017-01-11T09:49:39.667Z,11.1
2017-01-11T09:50:39.602Z,11.1
2017-01-11T09:51:39.543Z,10.81
2017-01-11T09:52:39.480Z,10.91
2017-01-11T09:53:39.415Z,11.1
2017-01-11T09:54:39.356Z,11
2017-01-11T09:55:39.295Z,11.1
2017-01-11T09:56:39.233Z,11
2017-01-11T09:57:39.167Z,11.1
2017-01-11T09:58:39.107Z,11
2017-01-11T09:59:39.043Z,10.81
2017-01-11T10:00:38.981Z,11
2017-01-11T10:01:38.919Z,10.72
2017-01-11T10:02:38.857Z,11
2017-01-11T10:03:38.794Z,11
2017-01-11T10:04:38.734Z,11
2017-01-11T10:05:38.668Z,10.81
2017-01-11T10:06:38.606Z,11
2017-01-11T10:07:38.545Z,10.91
2017-01-11T10:08:38.481Z,11
2017-01-11T10:09:38.424Z,11
2017-01-11T10:10:38.358Z,10.72
2017-01-11T10:11:38.297Z,10.33
2017-01-11T10:12:38.233Z,10.81
2017-01-11T10:13:38.171Z,10.62
2017-01-11T10:14:38.111Z,10.72
2017-01-11T10:15:38.057Z,10.33
2017-01-11T10:16:37.985Z,10.42
2017-01-11T10:17:37.970Z,10.23
2017-01-11T10:18:37.859Z,10.33
2017-01-11T10:19:37.805Z,10.62
2017-01-11T10:20:38.086Z,10.81
2017-01-11T10:21:37.675Z,10.72
2017-01-11T10:22:37.610Z,10.33
2017-01-11T10:23:37.550Z,10.42
2017-01-11T10:24:37.488Z,11.1
2017-01-11T10:25:37.816Z,10.72
2017-01-11T10:26:37.362Z,10.91
2017-01-11T10:27:37.300Z,10.81
2017-01-11T10:28:37.238Z,11
2017-01-11T10:29:37.175Z,10.81
2017-01-11T10:30:37.115Z,11
2017-01-11T10:31:37.442Z,11
2017-01-11T10:32:36.996Z,10.81
2017-01-11T10:33:36.927Z,11.1
2017-01-11T10:34:36.877Z,10.91
2017-01-11T10:35:36.824Z,10.81
2017-01-11T10:36:36.752Z,10.91
2017-01-11T10:37:36.680Z,11
2017-01-11T10:38:36.618Z,11.1
2017-01-11T10:39:36.563Z,11.2
2017-01-11T10:40:36.504Z,11.2
2017-01-11T10:41:36.432Z,11.2
2017-01-11T10:42:36.366Z,11.2
2017-01-11T10:43:36.313Z,11.39
2017-01-11T10:44:36.254Z,10.81
2017-01-11T10:45:36.179Z,10.91
2017-01-11T10:46:36.117Z,10.72
2017-01-11T10:47:36.056Z,10.33
2017-01-11T10:48:35.997Z,10.62
2017-01-11T10:49:35.931Z,10.04
2017-01-11T10:50:35.870Z,9.94
2017-01-11T10:51:35.812Z,9.66
2017-01-11T10:52:35.809Z,9.46
2017-01-11T10:53:35.685Z,9.46
2017-01-11T10:54:35.634Z,9.36
2017-01-11T10:55:35.560Z,9.36
2017-01-11T10:56:35.500Z,9.27
2017-01-11T10:57:35.434Z,9.08
2017-01-11T10:58:35.548Z,9.08
2017-01-11T10:59:35.310Z,8.98
2017-01-11T11:00:35.250Z,8.5
2017-01-11T11:01:35.186Z,8.5
2017-01-11T11:02:35.127Z,8.5
2017-01-11T11:03:35.063Z,8.59
2017-01-11T11:04:35.005Z,8.2
2017-01-11T11:05:34.937Z,8.4
2017-01-11T11:06:34.872Z,8.5
2017-01-11T11:07:34.810Z,8.5
2017-01-11T11:08:34.750Z,8.4
2017-01-11T11:09:34.685Z,8.3
2017-01-11T11:10:34.624Z,8.5
2017-01-11T11:11:34.562Z,8.5
2017-01-11T11:12:34.498Z,8.11
2017-01-11T11:13:34.438Z,8.2
2017-01-11T11:14:34.372Z,8.4
2017-01-11T11:15:34.313Z,8.11
2017-01-11T11:16:34.258Z,8.2
2017-01-11T11:17:34.185Z,8.2
2017-01-11T11:18:34.125Z,8.2
2017-01-11T11:19:34.063Z,8.2
2017-01-11T11:20:34.002Z,8.39
2017-01-11T11:21:33.937Z,8.29
2017-01-11T11:22:33.874Z,8.49
2017-01-11T11:23:33.813Z,8.49
2017-01-11T11:24:33.748Z,8.49
2017-01-11T11:25:33.709Z,8.2
2017-01-11T11:26:33.623Z,8.49
2017-01-11T11:27:33.566Z,8.39
2017-01-11T11:28:33.497Z,8.2
2017-01-11T11:29:33.482Z,8.69
2017-01-11T11:30:33.450Z,8.49
2017-01-11T11:31:33.340Z,8.11
2017-01-11T11:32:33.262Z,8.2
2017-01-11T11:33:33.241Z,8.87
2017-01-11T11:34:33.252Z,8.49
2017-01-11T11:35:33.548Z,8.49
2017-01-11T11:36:33.035Z,8.49
2017-01-11T11:37:33.055Z,8.39
2017-01-11T11:38:32.929Z,8.69
2017-01-11T11:39:32.921Z,8.69
2017-01-11T11:40:32.873Z,8.59
2017-01-11T11:41:33.076Z,8.69
2017-01-11T11:42:32.618Z,8.49
2017-01-11T11:43:32.556Z,8.59
2017-01-11T11:44:32.494Z,8.69
2017-01-11T11:45:32.428Z,8.59
2017-01-11T11:46:32.367Z,8.49
2017-01-11T11:47:32.305Z,8.78
2017-01-11T11:48:32.245Z,8.59
2017-01-11T11:49:32.179Z,8.59
2017-01-11T11:50:32.228Z,8.59
2017-01-11T11:51:32.554Z,8.59
2017-01-11T11:52:32.041Z,8.59
2017-01-11T11:53:32.016Z,8.49
2017-01-11T11:54:31.960Z,8.59
2017-01-11T11:55:31.876Z,8.78
2017-01-11T11:56:31.845Z,8.69
2017-01-11T11:57:31.759Z,8.69
2017-01-11T11:58:31.680Z,8.49
2017-01-11T11:59:31.638Z,8.49
2017-01-11T12:00:31.489Z,8.49
2017-01-11T12:01:31.428Z,8.39
2017-01-11T12:02:31.363Z,9.07
2017-01-11T12:03:31.302Z,8.87
2017-01-11T12:04:31.240Z,8.87
2017-01-11T12:05:31.177Z,8.97
2017-01-11T12:06:31.115Z,9.36
2017-01-11T12:07:31.055Z,9.27
2017-01-11T12:08:30.989Z,9.45
2017-01-11T12:09:30.925Z,9.45
2017-01-11T12:10:30.866Z,9.27
2017-01-11T12:11:30.802Z,8.97
2017-01-11T12:12:30.739Z,9.55
2017-01-11T12:13:30.683Z,9.45
2017-01-11T12:14:30.615Z,9.17
2017-01-11T12:15:30.551Z,9.36
2017-01-11T12:16:30.489Z,9.36
2017-01-11T12:17:30.425Z,9.45
2017-01-11T12:18:30.364Z,9.36
2017-01-11T12:19:30.300Z,9.27
2017-01-11T12:20:30.237Z,9.45
2017-01-11T12:21:30.235Z,9.36
2017-01-11T12:22:30.172Z,9.55
2017-01-11T12:23:30.083Z,9.55
2017-01-11T12:24:30.036Z,9.36
2017-01-11T12:25:30.007Z,9.65
2017-01-11T12:26:29.928Z,9.45
2017-01-11T12:27:29.855Z,9.93
2017-01-11T12:28:29.818Z,9.55
2017-01-11T12:29:29.731Z,9.75
2017-01-11T12:30:29.674Z,10.03
2017-01-11T12:31:29.618Z,9.84
2017-01-11T12:32:29.550Z,9.84
2017-01-11T12:33:29.461Z,9.74
2017-01-11T12:34:29.394Z,9.94
2017-01-11T12:35:29.315Z,9.84
2017-01-11T12:36:29.252Z,9.64
2017-01-11T12:37:29.170Z,9.74
2017-01-11T12:38:29.108Z,9.65
2017-01-11T12:39:29.043Z,9.74
2017-01-11T12:40:28.986Z,9.74
2017-01-11T12:41:28.917Z,10.03
2017-01-11T12:42:28.853Z,10.13
2017-01-11T12:43:28.793Z,10.32
2017-01-11T12:44:28.730Z,10.22
2017-01-11T12:45:28.667Z,10.22
2017-01-11T12:46:28.997Z,10.32
2017-01-11T12:47:28.540Z,10.22
2017-01-11T12:48:28.479Z,10.41
2017-01-11T12:49:28.413Z,10.41
2017-01-11T12:50:28.353Z,10.51
2017-01-11T12:51:28.291Z,10.13
2017-01-11T12:52:28.225Z,10.41
2017-01-11T12:53:28.169Z,10.41
2017-01-11T12:54:28.099Z,10.41
2017-01-11T12:55:28.037Z,10.32
2017-01-11T12:56:27.974Z,10.32
2017-01-11T12:57:27.910Z,10.71
2017-01-11T12:58:27.850Z,10.71
2017-01-11T12:59:27.783Z,10.51
2017-01-11T13:00:27.723Z,10.41
2017-01-11T13:01:27.673Z,10.8
2017-01-11T13:02:27.595Z,10.32
2017-01-11T13:03:27.548Z,10.89
2017-01-11T13:04:27.471Z,10.61
2017-01-11T13:05:27.406Z,10.71
2017-01-11T13:06:27.402Z,10.41
2017-01-11T13:07:27.313Z,10.22
2017-01-11T13:08:27.304Z,10.51